Puropanmaru No.3 — JD3322 — position and weather

sailwx.info

Track history (hours):
 
Tides and Currents Weather Stations Pressure Air Temp Water Temp Dewpoint Dewpoint Depression Visibility Wind Speed Wind Dir Waves Ship Positions

Puropanmaru No.3

Last reported at 2018-Apr-24 08:30 UTC. Time now 2018-Apr-24 08:51 UTC.
Position N 35°01' E 139°30'.

Length 68 m; draft 4.5 m.

Type: Tanker. MMSI: 431003365.

Date/timePositionNaut miles runAvg speedWind from/ knotsBaromVisibWave heightAir tempDewpointWater temp
2018-Apr-24 08:30N 35°01' E 139°30'612.5
2018-Apr-24 08:00N 35°05' E 139°36'612.5
2018-Apr-24 07:30N 35°08' E 139°42'612.6
2018-Apr-24 07:00N 35°13' E 139°46'613.0
2018-Apr-24 06:30N 35°19' E 139°43'611.7
2018-Apr-24 06:00N 35°25' E 139°44'612.5
2018-Apr-24 05:30N 35°29' E 139°50'612.3
2018-Apr-24 04:59N 35°31' E 139°57'510.1
2018-Apr-24 04:30N 35°32' E 140°03'0 0.2
2018-Apr-24 04:00N 35°32' E 140°03'0 0.0
2018-Apr-24 03:30N 35°32' E 140°03'0 0.0
2018-Apr-24 03:00N 35°32' E 140°03'0 0.0
2018-Apr-24 02:30N 35°32' E 140°03'0 0.0
2018-Apr-24 02:00N 35°32' E 140°03'0 0.0
2018-Apr-24 01:30N 35°32' E 140°03'0 0.0
2018-Apr-24 00:59N 35°32' E 140°03'0 0.0
2018-Apr-24 00:26N 35°32' E 140°03'0 0.0
2018-Apr-23 23:56N 35°32' E 140°03'1 3.0
2018-Apr-23 23:30N 35°32' E 140°02'4 8.8
2018-Apr-23 23:00N 35°30' E 139°57'1 2.0
2018-Apr-23 22:23N 35°29' E 139°56'0 0.0
2018-Apr-23 21:59N 35°29' E 139°56'0 0.0
2018-Apr-23 21:29N 35°29' E 139°56'0 0.0
2018-Apr-23 20:59N 35°29' E 139°56'0 0.0
2018-Apr-23 20:29N 35°29' E 139°56'0 0.0
2018-Apr-23 19:59N 35°29' E 139°56'0 0.0
2018-Apr-23 19:29N 35°29' E 139°56'0 0.0
2018-Apr-23 18:56N 35°29' E 139°56'0 0.0
2018-Apr-23 18:29N 35°29' E 139°56'0 0.0
2018-Apr-23 17:56N 35°29' E 139°56'0 0.0
2018-Apr-23 17:29N 35°29' E 139°56'0 0.0
2018-Apr-23 16:59N 35°29' E 139°56'0 0.0
2018-Apr-23 16:29N 35°29' E 139°56'0 0.0
2018-Apr-23 15:59N 35°29' E 139°56'0 0.0
2018-Apr-23 15:29N 35°29' E 139°56'0 0.0
2018-Apr-23 15:00N 35°29' E 139°56'5 9.0
2018-Apr-23 14:30N 35°28' E 139°51'612.8
2018-Apr-23 14:00N 35°23' E 139°46'611.8
2018-Apr-23 13:30N 35°17' E 139°46'612.7
2018-Apr-23 13:00N 35°11' E 139°47'713.3
2018-Apr-23 12:30N 35°04' E 139°45'713.0
2018-Apr-23 12:00N 34°58' E 139°44'1510.5
2018-Apr-23 10:34N 34°56' E 140°02'412.3
2018-Apr-23 10:16N 34°58' E 140°06'36 1.6
2018-Apr-22 11:43N 35°23' E 140°37'313.3
2018-Apr-22 11:30N 35°21' E 140°35'2713.2
2018-Apr-22 09:26N 35°01' E 140°12'613.0
2018-Apr-22 08:59N 34°58' E 140°06'1512.5
2018-Apr-22 07:47N 34°53' E 139°49'412.4
2018-Apr-22 07:30N 34°56' E 139°46'611.9
2018-Apr-22 07:00N 35°01' E 139°44'612.3
2018-Apr-22 06:30N 35°07' E 139°45'612.8
2018-Apr-22 06:00N 35°14' E 139°46'612.6
2018-Apr-22 05:30N 35°19' E 139°43'611.6
2018-Apr-22 05:00N 35°25' E 139°44'612.4
2018-Apr-22 04:30N 35°29' E 139°50'612.4
2018-Apr-22 04:00N 35°31' E 139°57'510.1
2018-Apr-22 03:31N 35°32' E 140°03'0 0.2
2018-Apr-22 03:00N 35°32' E 140°03'0 0.0
2018-Apr-22 02:30N 35°32' E 140°03'0 0.0
2018-Apr-22 02:01N 35°32' E 140°03'0 0.0
2018-Apr-22 01:30N 35°32' E 140°03'0 0.0
2018-Apr-22 01:01N 35°32' E 140°03'0 0.0
2018-Apr-22 00:31N 35°32' E 140°03'0 0.0
2018-Apr-22 00:00N 35°32' E 140°03'0 0.1
2018-Apr-21 22:57N 35°32' E 140°03'2 4.0
2018-Apr-21 22:30N 35°32' E 140°01'5 9.7
2018-Apr-21 22:00N 35°30' E 139°56'1 1.2
2018-Apr-21 21:30N 35°29' E 139°55'0 0.0
2018-Apr-21 21:00N 35°29' E 139°55'0 0.0
2018-Apr-21 20:30N 35°29' E 139°55'0 0.0
2018-Apr-21 20:00N 35°29' E 139°55'0 0.0
2018-Apr-21 19:27N 35°29' E 139°55'0 0.0
2018-Apr-21 18:54N 35°29' E 139°55'0 0.0
2018-Apr-21 18:30N 35°29' E 139°55'0 0.0
2018-Apr-21 17:57N 35°29' E 139°55'0 0.0
2018-Apr-21 17:30N 35°29' E 139°55'0 0.1
2018-Apr-21 16:57N 35°29' E 139°55'0 0.1
2018-Apr-21 16:30N 35°29' E 139°55'0 0.0
2018-Apr-21 16:00N 35°29' E 139°55'2 4.6
2018-Apr-21 15:30N 35°29' E 139°53'612.9
2018-Apr-21 15:01N 35°25' E 139°47'612.7
2018-Apr-21 14:30N 35°19' E 139°44'612.4
2018-Apr-21 14:00N 35°13' E 139°47'612.9
2018-Apr-21 13:30N 35°07' E 139°45'612.9
2018-Apr-21 13:00N 35°00' E 139°44'711.7
2018-Apr-21 12:26N 34°54' E 139°47'1211.0
2018-Apr-21 11:19N 34°56' E 140°02'412.6
2018-Apr-21 11:00N 34°58' E 140°06'41 1.9
2018-Apr-20 13:51N 35°26' E 140°42'412.9
2018-Apr-20 13:30N 35°23' E 140°39'813.0
2018-Apr-20 12:55N 35°16' E 140°34'1613.7
2018-Apr-20 11:45N 35°04' E 140°21'813.6
2018-Apr-20 11:10N 35°00' E 140°13'513.1
2018-Apr-20 10:47N 34°58' E 140°07'412.9
2018-Apr-20 10:29N 34°56' E 140°03'1112.2
2018-Apr-20 09:35N 34°52' E 139°50'112.4
2018-Apr-20 09:30N 34°53' E 139°49'611.3
2018-Apr-20 08:59N 34°57' E 139°45'611.6
2018-Apr-20 08:30N 35°02' E 139°44'612.5
2018-Apr-20 08:00N 35°09' E 139°45'612.3
2018-Apr-20 07:30N 35°15' E 139°47'612.0
2018-Apr-20 07:00N 35°20' E 139°43'511.0
2018-Apr-20 06:30N 35°25' E 139°44'612.6
2018-Apr-20 06:00N 35°29' E 139°50'612.4
2018-Apr-20 05:30N 35°31' E 139°57'510.9
2018-Apr-20 05:00N 35°32' E 140°03'0 0.1
2018-Apr-20 04:30N 35°32' E 140°03'0 0.0
2018-Apr-20 04:00N 35°32' E 140°03'0 0.0
2018-Apr-20 03:30N 35°32' E 140°03'0 0.0
2018-Apr-20 03:00N 35°32' E 140°03'0 0.0
2018-Apr-20 02:30N 35°32' E 140°03'0 0.0
2018-Apr-20 02:00N 35°32' E 140°03'0 0.0
2018-Apr-20 01:30N 35°32' E 140°03'0 0.0
2018-Apr-20 01:00N 35°32' E 140°03'0 0.0
2018-Apr-20 00:30N 35°32' E 140°03'1 2.9
2018-Apr-20 00:00N 35°33' E 140°04'1 1.9
2018-Apr-19 23:31N 35°33' E 140°05'0 0.0
2018-Apr-19 23:00N 35°33' E 140°05'0 0.0
2018-Apr-19 22:30N 35°33' E 140°05'0 0.0
2018-Apr-19 22:00N 35°33' E 140°05'0 0.0
2018-Apr-19 21:30N 35°33' E 140°05'0 0.0
2018-Apr-19 21:00N 35°33' E 140°05'0 0.0
2018-Apr-19 20:30N 35°34' E 140°05'0 0.0
2018-Apr-19 20:00N 35°34' E 140°05'0 0.0
2018-Apr-19 19:30N 35°34' E 140°05'0 0.0
2018-Apr-19 19:00N 35°34' E 140°05'0 0.0
2018-Apr-19 18:30N 35°34' E 140°05'0 0.0
2018-Apr-19 18:00N 35°34' E 140°05'0 0.0
2018-Apr-19 17:30N 35°34' E 140°05'0 0.1
2018-Apr-19 16:54N 35°34' E 140°05'0 0.0
2018-Apr-19 16:30N 35°34' E 140°05'0 0.0
2018-Apr-19 16:00N 35°34' E 140°05'0 0.0
2018-Apr-19 15:30N 35°34' E 140°05'0 0.0
2018-Apr-19 15:00N 35°34' E 140°05'0 0.0
2018-Apr-19 14:27N 35°34' E 140°05'0 0.0
2018-Apr-19 14:00N 35°34' E 140°05'0 0.0
2018-Apr-19 13:30N 35°34' E 140°05'0 0.0
2018-Apr-19 13:00N 35°34' E 140°05'0 0.0
2018-Apr-19 12:30N 35°34' E 140°05'0 0.0
2018-Apr-19 12:00N 35°34' E 140°05'0 0.0
2018-Apr-19 11:30N 35°34' E 140°05'0 0.0
2018-Apr-19 11:00N 35°34' E 140°05'0 0.0
2018-Apr-19 10:30N 35°34' E 140°05'0 0.0
2018-Apr-19 09:57N 35°34' E 140°05'0 0.1
2018-Apr-19 09:30N 35°34' E 140°05'0 0.1
2018-Apr-19 08:54N 35°34' E 140°05'0 0.1
2018-Apr-19 08:27N 35°34' E 140°05'2 4.3
2018-Apr-19 08:00N 35°33' E 140°03'1 2.2
2018-Apr-19 07:31N 35°33' E 140°02'611.4
2018-Apr-19 06:58N 35°31' E 139°55'613.6
2018-Apr-19 06:30N 35°26' E 139°49'713.3
2018-Apr-19 06:00N 35°21' E 139°45'612.5
2018-Apr-19 05:30N 35°15' E 139°47'612.6
2018-Apr-19 05:00N 35°08' E 139°45'612.6
2018-Apr-19 04:31N 35°04' E 139°40'713.1
2018-Apr-19 04:00N 34°60' E 139°34'1114.3
2018-Apr-19 03:14N 34°53' E 139°23'415.3
2018-Apr-19 02:57N 34°50' E 139°19'614.6
2018-Apr-19 02:30N 34°46' E 139°13'713.7
2018-Apr-19 02:01N 34°42' E 139°07'714.1
2018-Apr-19 01:29N 34°37' E 138°60'713.5
2018-Apr-19 01:00N 34°35' E 138°52'813.3
2018-Apr-19 00:23N 34°34' E 138°42'513.4
2018-Apr-18 23:59N 34°33' E 138°36'18211.0
2018-Apr-18 07:28N 33°50' E 135°02'613.4
2018-Apr-18 06:59N 33°55' E 134°58'613.2
2018-Apr-18 06:30N 34°00' E 134°52'713.3
2018-Apr-18 06:00N 34°05' E 134°47'814.3
2018-Apr-18 05:29N 34°11' E 134°42'714.7
2018-Apr-18 05:00N 34°17' E 134°38'713.6
2018-Apr-18 04:30N 34°24' E 134°38'713.1
2018-Apr-18 04:00N 34°31' E 134°38'713.2
2018-Apr-18 03:30N 34°37' E 134°38'713.2
2018-Apr-18 03:00N 34°44' E 134°37'2 4.7
2018-Apr-18 02:30N 34°46' E 134°35'0 0.0
2018-Apr-18 01:56N 34°46' E 134°35'0 0.0
2018-Apr-18 01:30N 34°46' E 134°35'0 0.0
2018-Apr-18 01:00N 34°46' E 134°35'0 0.0
2018-Apr-18 00:30N 34°46' E 134°35'0 0.0
2018-Apr-18 00:00N 34°46' E 134°35'0 0.0
2018-Apr-17 23:30N 34°46' E 134°35'1 1.4
2018-Apr-17 22:52N 34°45' E 134°35'0 0.0
2018-Apr-17 22:24N 34°45' E 134°35'0 0.0
2018-Apr-17 21:36N 34°45' E 134°35'0 0.1
2018-Apr-17 21:30N 34°45' E 134°35'0 0.0
2018-Apr-17 17:18N 34°45' E 134°35'0 0.0
2018-Apr-17 17:00N 34°45' E 134°35'0 0.0
2018-Apr-17 16:24N 34°45' E 134°35'0 0.0
2018-Apr-17 16:00N 34°45' E 134°35'0 0.0
2018-Apr-17 15:30N 34°45' E 134°35'0 0.0
2018-Apr-17 15:00N 34°45' E 134°35'0 0.0
2018-Apr-17 14:30N 34°45' E 134°35'0 0.1
2018-Apr-17 14:00N 34°45' E 134°35'0 0.0
2018-Apr-17 13:30N 34°45' E 134°35'0 0.0
2018-Apr-17 12:54N 34°45' E 134°35'0 0.1
2018-Apr-17 12:30N 34°45' E 134°35'510.5
2018-Apr-17 12:00N 34°42' E 134°30'1012.2
2018-Apr-17 11:12N 34°37' E 134°20'312.0
2018-Apr-17 11:00N 34°36' E 134°17'12 0.5
2018-Apr-16 10:21N 34°31' E 134°03'2213.9
2018-Apr-16 08:47N 34°42' E 134°26'413.0
2018-Apr-16 08:27N 34°43' E 134°31'4 9.0
2018-Apr-16 07:59N 34°46' E 134°35'0 0.0
2018-Apr-16 07:30N 34°46' E 134°35'0 0.0
2018-Apr-16 07:00N 34°46' E 134°35'0 0.0
2018-Apr-16 06:30N 34°46' E 134°35'0 0.0
2018-Apr-16 06:00N 34°46' E 134°35'0 0.0
2018-Apr-16 05:28N 34°46' E 134°35'0 0.0
2018-Apr-16 04:55N 34°46' E 134°35'0 0.3
2018-Apr-16 04:30N 34°46' E 134°35'510.0
2018-Apr-16 04:00N 34°41' E 134°38'612.9
2018-Apr-16 03:30N 34°35' E 134°38'713.0
2018-Apr-16 03:00N 34°28' E 134°38'612.7
2018-Apr-16 02:30N 34°22' E 134°38'611.9
2018-Apr-16 02:00N 34°16' E 134°38'610.4
2018-Apr-16 01:27N 34°11' E 134°42'511.6
2018-Apr-16 01:00N 34°07' E 134°46'612.3
2018-Apr-16 00:29N 34°02' E 134°51'612.7
2018-Apr-16 00:00N 33°57' E 134°55'612.4
2018-Apr-15 23:30N 33°53' E 135°01'104 8.6
2018-Apr-15 11:22N 34°37' E 136°54'513.5
2018-Apr-15 11:00N 34°40' E 136°50'713.7
2018-Apr-15 10:30N 34°47' E 136°46'713.5
2018-Apr-15 10:00N 34°53' E 136°42'510.2
2018-Apr-15 09:30N 34°57' E 136°39'0 0.6
2018-Apr-15 09:00N 34°57' E 136°38'0 0.0
2018-Apr-15 08:30N 34°57' E 136°38'0 0.0
2018-Apr-15 08:00N 34°57' E 136°38'0 0.0
2018-Apr-15 07:30N 34°57' E 136°38'0 0.0
2018-Apr-15 07:00N 34°57' E 136°38'0 0.0
2018-Apr-15 06:30N 34°57' E 136°38'0 0.0
2018-Apr-15 06:00N 34°57' E 136°38'0 0.0
2018-Apr-15 05:30N 34°57' E 136°38'2 3.9
2018-Apr-15 05:00N 34°56' E 136°41'612.3
2018-Apr-15 04:30N 34°51' E 136°44'612.6
2018-Apr-15 04:00N 34°45' E 136°48'103 7.4
2018-Apr-14 14:09N 33°50' E 135°03'1 8.9
2018-Apr-14 14:00N 33°51' E 135°02'4 7.9
2018-Apr-14 13:30N 33°55' E 135°00'4 7.7
2018-Apr-14 13:00N 33°58' E 134°58'5 9.3
2018-Apr-14 12:30N 34°03' E 134°57'5 9.8
2018-Apr-14 12:00N 34°08' E 134°56'611.3
2018-Apr-14 11:30N 34°13' E 134°58'611.1
2018-Apr-14 11:00N 34°19' E 134°59'611.9
2018-Apr-14 10:30N 34°24' E 135°01'612.2
2018-Apr-14 10:00N 34°30' E 135°02'510.7
2018-Apr-14 09:30N 34°36' E 135°03'5 9.1
2018-Apr-14 09:00N 34°37' E 134°58'510.7
2018-Apr-14 08:30N 34°38' E 134°51'  
Track history (hours):
 
Tides and Currents Weather Stations Pressure Air Temp Water Temp Dewpoint Dewpoint Depression Visibility Wind Speed Wind Dir Waves Ship Positions

Puropanmaru No.3

Last reported at 2018-Apr-24 08:30 UTC. Time now 2018-Apr-24 08:51 UTC.
Position N 35°01' E 139°30'.

Length 68 m; draft 4.5 m.

Type: Tanker. MMSI: 431003365.

Date/timePositionNaut miles runAvg speedWind from/ knotsBaromVisibWave heightAir tempDewpointWater temp
2018-Apr-24 08:30N 35°01' E 139°30'612.5
2018-Apr-24 08:00N 35°05' E 139°36'612.5
2018-Apr-24 07:30N 35°08' E 139°42'612.6
2018-Apr-24 07:00N 35°13' E 139°46'613.0
2018-Apr-24 06:30N 35°19' E 139°43'611.7
2018-Apr-24 06:00N 35°25' E 139°44'612.5
2018-Apr-24 05:30N 35°29' E 139°50'612.3
2018-Apr-24 04:59N 35°31' E 139°57'510.1
2018-Apr-24 04:30N 35°32' E 140°03'0 0.2
2018-Apr-24 04:00N 35°32' E 140°03'0 0.0
2018-Apr-24 03:30N 35°32' E 140°03'0 0.0
2018-Apr-24 03:00N 35°32' E 140°03'0 0.0
2018-Apr-24 02:30N 35°32' E 140°03'0 0.0
2018-Apr-24 02:00N 35°32' E 140°03'0 0.0
2018-Apr-24 01:30N 35°32' E 140°03'0 0.0
2018-Apr-24 00:59N 35°32' E 140°03'0 0.0
2018-Apr-24 00:26N 35°32' E 140°03'0 0.0
2018-Apr-23 23:56N 35°32' E 140°03'1 3.0
2018-Apr-23 23:30N 35°32' E 140°02'4 8.8
2018-Apr-23 23:00N 35°30' E 139°57'1 2.0
2018-Apr-23 22:23N 35°29' E 139°56'0 0.0
2018-Apr-23 21:59N 35°29' E 139°56'0 0.0
2018-Apr-23 21:29N 35°29' E 139°56'0 0.0
2018-Apr-23 20:59N 35°29' E 139°56'0 0.0
2018-Apr-23 20:29N 35°29' E 139°56'0 0.0
2018-Apr-23 19:59N 35°29' E 139°56'0 0.0
2018-Apr-23 19:29N 35°29' E 139°56'0 0.0
2018-Apr-23 18:56N 35°29' E 139°56'0 0.0
2018-Apr-23 18:29N 35°29' E 139°56'0 0.0
2018-Apr-23 17:56N 35°29' E 139°56'0 0.0
2018-Apr-23 17:29N 35°29' E 139°56'0 0.0
2018-Apr-23 16:59N 35°29' E 139°56'0 0.0
2018-Apr-23 16:29N 35°29' E 139°56'0 0.0
2018-Apr-23 15:59N 35°29' E 139°56'0 0.0
2018-Apr-23 15:29N 35°29' E 139°56'0 0.0
2018-Apr-23 15:00N 35°29' E 139°56'5 9.0
2018-Apr-23 14:30N 35°28' E 139°51'612.8
2018-Apr-23 14:00N 35°23' E 139°46'611.8
2018-Apr-23 13:30N 35°17' E 139°46'612.7
2018-Apr-23 13:00N 35°11' E 139°47'713.3
2018-Apr-23 12:30N 35°04' E 139°45'713.0
2018-Apr-23 12:00N 34°58' E 139°44'1510.5
2018-Apr-23 10:34N 34°56' E 140°02'412.3
2018-Apr-23 10:16N 34°58' E 140°06'36 1.6
2018-Apr-22 11:43N 35°23' E 140°37'313.3
2018-Apr-22 11:30N 35°21' E 140°35'2713.2
2018-Apr-22 09:26N 35°01' E 140°12'613.0
2018-Apr-22 08:59N 34°58' E 140°06'1512.5
2018-Apr-22 07:47N 34°53' E 139°49'412.4
2018-Apr-22 07:30N 34°56' E 139°46'611.9
2018-Apr-22 07:00N 35°01' E 139°44'612.3
2018-Apr-22 06:30N 35°07' E 139°45'612.8
2018-Apr-22 06:00N 35°14' E 139°46'612.6
2018-Apr-22 05:30N 35°19' E 139°43'611.6
2018-Apr-22 05:00N 35°25' E 139°44'612.4
2018-Apr-22 04:30N 35°29' E 139°50'612.4
2018-Apr-22 04:00N 35°31' E 139°57'510.1
2018-Apr-22 03:31N 35°32' E 140°03'0 0.2
2018-Apr-22 03:00N 35°32' E 140°03'0 0.0
2018-Apr-22 02:30N 35°32' E 140°03'0 0.0
2018-Apr-22 02:01N 35°32' E 140°03'0 0.0
2018-Apr-22 01:30N 35°32' E 140°03'0 0.0
2018-Apr-22 01:01N 35°32' E 140°03'0 0.0
2018-Apr-22 00:31N 35°32' E 140°03'0 0.0
2018-Apr-22 00:00N 35°32' E 140°03'0 0.1
2018-Apr-21 22:57N 35°32' E 140°03'2 4.0
2018-Apr-21 22:30N 35°32' E 140°01'5 9.7
2018-Apr-21 22:00N 35°30' E 139°56'1 1.2
2018-Apr-21 21:30N 35°29' E 139°55'0 0.0
2018-Apr-21 21:00N 35°29' E 139°55'0 0.0
2018-Apr-21 20:30N 35°29' E 139°55'0 0.0
2018-Apr-21 20:00N 35°29' E 139°55'0 0.0
2018-Apr-21 19:27N 35°29' E 139°55'0 0.0
2018-Apr-21 18:54N 35°29' E 139°55'0 0.0
2018-Apr-21 18:30N 35°29' E 139°55'0 0.0
2018-Apr-21 17:57N 35°29' E 139°55'0 0.0
2018-Apr-21 17:30N 35°29' E 139°55'0 0.1
2018-Apr-21 16:57N 35°29' E 139°55'0 0.1
2018-Apr-21 16:30N 35°29' E 139°55'0 0.0
2018-Apr-21 16:00N 35°29' E 139°55'2 4.6
2018-Apr-21 15:30N 35°29' E 139°53'612.9
2018-Apr-21 15:01N 35°25' E 139°47'612.7
2018-Apr-21 14:30N 35°19' E 139°44'612.4
2018-Apr-21 14:00N 35°13' E 139°47'612.9
2018-Apr-21 13:30N 35°07' E 139°45'612.9
2018-Apr-21 13:00N 35°00' E 139°44'711.7
2018-Apr-21 12:26N 34°54' E 139°47'1211.0
2018-Apr-21 11:19N 34°56' E 140°02'412.6
2018-Apr-21 11:00N 34°58' E 140°06'41 1.9
2018-Apr-20 13:51N 35°26' E 140°42'412.9
2018-Apr-20 13:30N 35°23' E 140°39'813.0
2018-Apr-20 12:55N 35°16' E 140°34'1613.7
2018-Apr-20 11:45N 35°04' E 140°21'813.6
2018-Apr-20 11:10N 35°00' E 140°13'513.1
2018-Apr-20 10:47N 34°58' E 140°07'412.9
2018-Apr-20 10:29N 34°56' E 140°03'1112.2
2018-Apr-20 09:35N 34°52' E 139°50'112.4
2018-Apr-20 09:30N 34°53' E 139°49'611.3
2018-Apr-20 08:59N 34°57' E 139°45'611.6
2018-Apr-20 08:30N 35°02' E 139°44'612.5
2018-Apr-20 08:00N 35°09' E 139°45'612.3
2018-Apr-20 07:30N 35°15' E 139°47'612.0
2018-Apr-20 07:00N 35°20' E 139°43'511.0
2018-Apr-20 06:30N 35°25' E 139°44'612.6
2018-Apr-20 06:00N 35°29' E 139°50'612.4
2018-Apr-20 05:30N 35°31' E 139°57'510.9
2018-Apr-20 05:00N 35°32' E 140°03'0 0.1
2018-Apr-20 04:30N 35°32' E 140°03'0 0.0
2018-Apr-20 04:00N 35°32' E 140°03'0 0.0
2018-Apr-20 03:30N 35°32' E 140°03'0 0.0
2018-Apr-20 03:00N 35°32' E 140°03'0 0.0
2018-Apr-20 02:30N 35°32' E 140°03'0 0.0
2018-Apr-20 02:00N 35°32' E 140°03'0 0.0
2018-Apr-20 01:30N 35°32' E 140°03'0 0.0
2018-Apr-20 01:00N 35°32' E 140°03'0 0.0
2018-Apr-20 00:30N 35°32' E 140°03'1 2.9
2018-Apr-20 00:00N 35°33' E 140°04'1 1.9
2018-Apr-19 23:31N 35°33' E 140°05'0 0.0
2018-Apr-19 23:00N 35°33' E 140°05'0 0.0
2018-Apr-19 22:30N 35°33' E 140°05'0 0.0
2018-Apr-19 22:00N 35°33' E 140°05'0 0.0
2018-Apr-19 21:30N 35°33' E 140°05'0 0.0
2018-Apr-19 21:00N 35°33' E 140°05'0 0.0
2018-Apr-19 20:30N 35°34' E 140°05'0 0.0
2018-Apr-19 20:00N 35°34' E 140°05'0 0.0
2018-Apr-19 19:30N 35°34' E 140°05'0 0.0
2018-Apr-19 19:00N 35°34' E 140°05'0 0.0
2018-Apr-19 18:30N 35°34' E 140°05'0 0.0
2018-Apr-19 18:00N 35°34' E 140°05'0 0.0
2018-Apr-19 17:30N 35°34' E 140°05'0 0.1
2018-Apr-19 16:54N 35°34' E 140°05'0 0.0
2018-Apr-19 16:30N 35°34' E 140°05'0 0.0
2018-Apr-19 16:00N 35°34' E 140°05'0 0.0
2018-Apr-19 15:30N 35°34' E 140°05'0 0.0
2018-Apr-19 15:00N 35°34' E 140°05'0 0.0
2018-Apr-19 14:27N 35°34' E 140°05'0 0.0
2018-Apr-19 14:00N 35°34' E 140°05'0 0.0
2018-Apr-19 13:30N 35°34' E 140°05'0 0.0
2018-Apr-19 13:00N 35°34' E 140°05'0 0.0
2018-Apr-19 12:30N 35°34' E 140°05'0 0.0
2018-Apr-19 12:00N 35°34' E 140°05'0 0.0
2018-Apr-19 11:30N 35°34' E 140°05'0 0.0
2018-Apr-19 11:00N 35°34' E 140°05'0 0.0
2018-Apr-19 10:30N 35°34' E 140°05'0 0.0
2018-Apr-19 09:57N 35°34' E 140°05'0 0.1
2018-Apr-19 09:30N 35°34' E 140°05'0 0.1
2018-Apr-19 08:54N 35°34' E 140°05'0 0.1
2018-Apr-19 08:27N 35°34' E 140°05'2 4.3
2018-Apr-19 08:00N 35°33' E 140°03'1 2.2
2018-Apr-19 07:31N 35°33' E 140°02'611.4
2018-Apr-19 06:58N 35°31' E 139°55'613.6
2018-Apr-19 06:30N 35°26' E 139°49'713.3
2018-Apr-19 06:00N 35°21' E 139°45'612.5
2018-Apr-19 05:30N 35°15' E 139°47'612.6
2018-Apr-19 05:00N 35°08' E 139°45'612.6
2018-Apr-19 04:31N 35°04' E 139°40'713.1
2018-Apr-19 04:00N 34°60' E 139°34'1114.3
2018-Apr-19 03:14N 34°53' E 139°23'415.3
2018-Apr-19 02:57N 34°50' E 139°19'614.6
2018-Apr-19 02:30N 34°46' E 139°13'713.7
2018-Apr-19 02:01N 34°42' E 139°07'714.1
2018-Apr-19 01:29N 34°37' E 138°60'713.5
2018-Apr-19 01:00N 34°35' E 138°52'813.3
2018-Apr-19 00:23N 34°34' E 138°42'513.4
2018-Apr-18 23:59N 34°33' E 138°36'18211.0
2018-Apr-18 07:28N 33°50' E 135°02'613.4
2018-Apr-18 06:59N 33°55' E 134°58'613.2
2018-Apr-18 06:30N 34°00' E 134°52'713.3
2018-Apr-18 06:00N 34°05' E 134°47'814.3
2018-Apr-18 05:29N 34°11' E 134°42'714.7
2018-Apr-18 05:00N 34°17' E 134°38'713.6
2018-Apr-18 04:30N 34°24' E 134°38'713.1
2018-Apr-18 04:00N 34°31' E 134°38'713.2
2018-Apr-18 03:30N 34°37' E 134°38'713.2
2018-Apr-18 03:00N 34°44' E 134°37'2 4.7
2018-Apr-18 02:30N 34°46' E 134°35'0 0.0
2018-Apr-18 01:56N 34°46' E 134°35'0 0.0
2018-Apr-18 01:30N 34°46' E 134°35'0 0.0
2018-Apr-18 01:00N 34°46' E 134°35'0 0.0
2018-Apr-18 00:30N 34°46' E 134°35'0 0.0
2018-Apr-18 00:00N 34°46' E 134°35'0 0.0
2018-Apr-17 23:30N 34°46' E 134°35'1 1.4
2018-Apr-17 22:52N 34°45' E 134°35'0 0.0
2018-Apr-17 22:24N 34°45' E 134°35'0 0.0
2018-Apr-17 21:36N 34°45' E 134°35'0 0.1
2018-Apr-17 21:30N 34°45' E 134°35'0 0.0
2018-Apr-17 17:18N 34°45' E 134°35'0 0.0
2018-Apr-17 17:00N 34°45' E 134°35'0 0.0
2018-Apr-17 16:24N 34°45' E 134°35'0 0.0
2018-Apr-17 16:00N 34°45' E 134°35'0 0.0
2018-Apr-17 15:30N 34°45' E 134°35'0 0.0
2018-Apr-17 15:00N 34°45' E 134°35'0 0.0
2018-Apr-17 14:30N 34°45' E 134°35'0 0.1
2018-Apr-17 14:00N 34°45' E 134°35'0 0.0
2018-Apr-17 13:30N 34°45' E 134°35'0 0.0
2018-Apr-17 12:54N 34°45' E 134°35'0 0.1
2018-Apr-17 12:30N 34°45' E 134°35'510.5
2018-Apr-17 12:00N 34°42' E 134°30'1012.2
2018-Apr-17 11:12N 34°37' E 134°20'312.0
2018-Apr-17 11:00N 34°36' E 134°17'12 0.5
2018-Apr-16 10:21N 34°31' E 134°03'2213.9
2018-Apr-16 08:47N 34°42' E 134°26'413.0
2018-Apr-16 08:27N 34°43' E 134°31'4 9.0
2018-Apr-16 07:59N 34°46' E 134°35'0 0.0
2018-Apr-16 07:30N 34°46' E 134°35'0 0.0
2018-Apr-16 07:00N 34°46' E 134°35'0 0.0
2018-Apr-16 06:30N 34°46' E 134°35'0 0.0
2018-Apr-16 06:00N 34°46' E 134°35'0 0.0
2018-Apr-16 05:28N 34°46' E 134°35'0 0.0
2018-Apr-16 04:55N 34°46' E 134°35'0 0.3
2018-Apr-16 04:30N 34°46' E 134°35'510.0
2018-Apr-16 04:00N 34°41' E 134°38'612.9
2018-Apr-16 03:30N 34°35' E 134°38'713.0
2018-Apr-16 03:00N 34°28' E 134°38'612.7
2018-Apr-16 02:30N 34°22' E 134°38'611.9
2018-Apr-16 02:00N 34°16' E 134°38'610.4
2018-Apr-16 01:27N 34°11' E 134°42'511.6
2018-Apr-16 01:00N 34°07' E 134°46'612.3
2018-Apr-16 00:29N 34°02' E 134°51'612.7
2018-Apr-16 00:00N 33°57' E 134°55'612.4
2018-Apr-15 23:30N 33°53' E 135°01'104 8.6
2018-Apr-15 11:22N 34°37' E 136°54'513.5
2018-Apr-15 11:00N 34°40' E 136°50'713.7
2018-Apr-15 10:30N 34°47' E 136°46'713.5
2018-Apr-15 10:00N 34°53' E 136°42'510.2
2018-Apr-15 09:30N 34°57' E 136°39'0 0.6
2018-Apr-15 09:00N 34°57' E 136°38'0 0.0
2018-Apr-15 08:30N 34°57' E 136°38'0 0.0
2018-Apr-15 08:00N 34°57' E 136°38'0 0.0
2018-Apr-15 07:30N 34°57' E 136°38'0 0.0
2018-Apr-15 07:00N 34°57' E 136°38'0 0.0
2018-Apr-15 06:30N 34°57' E 136°38'0 0.0
2018-Apr-15 06:00N 34°57' E 136°38'0 0.0
2018-Apr-15 05:30N 34°57' E 136°38'2 3.9
2018-Apr-15 05:00N 34°56' E 136°41'612.3
2018-Apr-15 04:30N 34°51' E 136°44'612.6
2018-Apr-15 04:00N 34°45' E 136°48'103 7.4
2018-Apr-14 14:09N 33°50' E 135°03'1 8.9
2018-Apr-14 14:00N 33°51' E 135°02'4 7.9
2018-Apr-14 13:30N 33°55' E 135°00'4 7.7
2018-Apr-14 13:00N 33°58' E 134°58'5 9.3
2018-Apr-14 12:30N 34°03' E 134°57'5 9.8
2018-Apr-14 12:00N 34°08' E 134°56'611.3
2018-Apr-14 11:30N 34°13' E 134°58'611.1
2018-Apr-14 11:00N 34°19' E 134°59'611.9
2018-Apr-14 10:30N 34°24' E 135°01'612.2
2018-Apr-14 10:00N 34°30' E 135°02'510.7
2018-Apr-14 09:30N 34°36' E 135°03'5 9.1
2018-Apr-14 09:00N 34°37' E 134°58'510.7
2018-Apr-14 08:30N 34°38' E 134°51'  

Dump ship's entire track history